Waukee, Iowa
Current Conditions -  °F | °C
As of 3:54 AM on Sunday 23 Nov 2014 (Local Time) from KDSM Reporting Station
Overcast Overcast  
Wind Chill: 13°   Ceiling: 1600
Heat Index: 13°   Visibility: 10mi
Dew Point: 10°   Wind: 12mph
Humidity: 83%   Direction: 190°S
Pressure: 29.57"   Gusts: NA
Location:  41.61°N, 93.89°W
Report Text: KDSM 230954Z 19010KT 10SM BKN016 OVC023 13/10 A2957 RMK AO2 SLP012 T01280100
Loading
Personal Weather Stations






























Interactive Weather Map New forecast layout! Learn more

10-Day Weather Forecast

Advertisements
Track Severe Weather on mobile